Time;durP1;ratioP1;P1;durP2;ratioP2;P2;SDS_P1;SDS_P2;PMS_P1;PMS_P2;Temp;Humidity;BMP_temperature;BMP_pressure;BME280_temperature;BME280_humidity;BME280_pressure;Samples;Min_cycle;Max_cycle;Signal;HPM_P1;HPM_P2
2022/03/17 00:01:58;;;;;;;14.73;13.23;;;8.40;78.40;;;;;;5116754;28;20171;-89
2022/03/17 00:04:24;;;;;;;14.07;12.57;;;8.40;78.60;;;;;;5116798;28;20190;-89
2022/03/17 00:06:50;;;;;;;13.63;12.33;;;8.50;78.50;;;;;;5116686;28;20181;-91
2022/03/17 00:09:16;;;;;;;15.27;13.77;;;8.60;78.40;;;;;;5118835;28;20180;-92
2022/03/17 00:11:42;;;;;;;14.43;12.97;;;8.60;78.20;;;;;;5128575;28;20191;-88
2022/03/17 00:14:07;;;;;;;15.23;12.90;;;8.50;78.40;;;;;;5128803;28;20233;-90
2022/03/17 00:16:34;;;;;;;14.77;12.63;;;8.50;78.40;;;;;;5131536;28;20188;-86
2022/03/17 00:19:07;;;;;;;15.20;13.63;;;8.50;78.50;;;;;;5100628;28;20633;-87
2022/03/17 00:21:37;;;;;;;15.00;13.50;;;8.50;78.60;;;;;;5116772;28;20157;-89
2022/03/17 00:24:03;;;;;;;16.33;14.20;;;8.40;78.80;;;;;;5116774;28;20619;-89
2022/03/17 00:26:29;;;;;;;15.07;13.67;;;8.40;78.70;;;;;;5116142;28;20173;-89
2022/03/17 00:28:55;;;;;;;15.27;13.40;;;8.40;78.70;;;;;;5108565;28;20300;-89
2022/03/17 00:31:21;;;;;;;14.33;12.83;;;8.40;78.70;;;;;;5104603;28;20178;-90
2022/03/17 00:33:47;;;;;;;16.07;13.90;;;8.40;78.80;;;;;;5135943;28;20196;-87
2022/03/17 00:36:12;;;;;;;15.07;13.47;;;8.40;78.80;;;;;;5119241;28;20189;-91
2022/03/17 00:38:38;;;;;;;14.57;13.03;;;8.30;79.40;;;;;;5128337;28;20184;-88
2022/03/17 00:41:04;;;;;;;15.33;13.77;;;8.30;79.40;;;;;;5122592;28;20189;-85
2022/03/17 00:43:30;;;;;;;14.87;13.30;;;8.20;79.50;;;;;;5122695;28;20240;-87
2022/03/17 00:45:56;;;;;;;15.13;13.70;;;8.20;79.70;;;;;;5138705;28;20199;-89
2022/03/17 00:48:22;;;;;;;16.23;13.83;;;8.20;80.60;;;;;;5116436;28;20214;-88
2022/03/17 00:50:48;;;;;;;14.80;13.30;;;8.10;79.50;;;;;;5111274;28;20644;-89
2022/03/17 00:53:13;;;;;;;14.57;13.17;;;8.10;79.80;;;;;;5125024;28;20221;-89
2022/03/17 00:55:39;;;;;;;15.23;13.50;;;8.10;80.00;;;;;;5100583;28;20173;-90
2022/03/17 00:58:05;;;;;;;15.27;13.77;;;8.00;80.30;;;;;;5099672;28;20177;-90
2022/03/17 01:00:31;;;;;;;15.23;13.73;;;7.90;80.60;;;;;;5123081;28;20168;-86
2022/03/17 01:02:57;;;;;;;15.13;13.53;;;7.90;80.60;;;;;;5136314;28;20207;-89
2022/03/17 01:05:23;;;;;;;14.67;13.17;;;7.90;80.60;;;;;;5133600;28;20149;-85
2022/03/17 01:07:55;;;;;;;15.43;13.83;;;7.90;80.50;;;;;;5135456;28;20212;-88
2022/03/17 01:10:22;;;;;;;17.13;14.60;;;7.80;80.60;;;;;;5127930;28;20175;-89
2022/03/17 01:12:48;;;;;;;15.67;14.03;;;7.80;80.90;;;;;;5117574;28;20631;-89
2022/03/17 01:15:16;;;;;;;15.57;13.63;;;7.80;80.90;;;;;;5096601;28;20632;-89
2022/03/17 01:17:42;;;;;;;16.00;13.77;;;7.80;80.80;;;;;;5115081;28;20173;-90
2022/03/17 01:20:09;;;;;;;15.60;13.83;;;7.80;80.70;;;;;;5096451;28;20233;-88
2022/03/17 01:22:34;;;;;;;15.17;13.67;;;7.80;80.70;;;;;;5115705;28;20175;-90
2022/03/17 01:25:00;;;;;;;13.93;12.43;;;7.90;80.40;;;;;;5115787;28;20260;-87
2022/03/17 01:27:26;;;;;;;15.37;13.87;;;7.90;81.00;;;;;;5114212;28;20643;-87
2022/03/17 01:29:53;;;;;;;15.23;13.73;;;7.80;81.00;;;;;;5114410;28;20168;-87
2022/03/17 01:32:20;;;;;;;15.27;13.67;;;7.80;81.10;;;;;;5114176;28;20201;-89
2022/03/17 01:34:46;;;;;;;18.23;13.83;;;7.80;81.00;;;;;;5096089;28;20180;-86
2022/03/17 01:37:12;;;;;;;17.80;13.80;;;7.80;81.10;;;;;;5096220;28;20183;-88
2022/03/17 01:39:38;;;;;;;15.10;13.53;;;7.70;81.20;;;;;;5114546;28;20177;-88
2022/03/17 01:42:07;;;;;;;15.27;13.57;;;7.60;81.40;;;;;;5114377;28;20675;-85
2022/03/17 01:44:33;;;;;;;16.13;14.37;;;7.60;81.70;;;;;;5114322;28;20266;-86
2022/03/17 01:49:44;;;;;;;15.30;13.63;;;7.40;82.10;;;;;;5114518;28;20279;-89
2022/03/17 01:52:10;;;;;;;15.83;14.27;;;7.30;82.70;;;;;;5114040;28;20592;-86
2022/03/17 01:54:37;;;;;;;16.03;14.33;;;7.40;82.50;;;;;;5095661;28;20192;-87
2022/03/17 01:57:05;;;;;;;17.13;14.70;;;7.30;82.70;;;;;;5095830;28;20172;-85
2022/03/17 01:59:32;;;;;;;16.00;14.13;;;7.40;82.60;;;;;;5114225;28;20185;-87
2022/03/17 02:01:58;;;;;;;16.10;14.53;;;7.30;82.50;;;;;;5118273;28;20174;-87
2022/03/17 02:04:24;;;;;;;18.00;14.67;;;7.30;82.50;;;;;;5118316;28;20175;-90
2022/03/17 02:06:51;;;;;;;14.47;13.07;;;7.30;82.80;;;;;;5100036;28;20174;-89
2022/03/17 02:09:18;;;;;;;16.00;14.27;;;7.30;82.90;;;;;;5119056;28;20214;-89
2022/03/17 02:14:34;;;;;;;17.43;14.90;;;7.20;83.20;;;;;;5119616;28;20644;-90
2022/03/17 02:17:00;;;;;;;16.57;14.87;;;7.20;83.50;;;;;;5100877;28;20758;-90
2022/03/17 02:19:26;;;;;;;16.60;14.90;;;7.10;84.00;;;;;;5119460;28;20255;-90
2022/03/17 02:21:52;;;;;;;16.57;14.87;;;7.00;84.30;;;;;;5111962;28;20172;-89
2022/03/17 02:27:03;;;;;;;16.00;14.40;;;7.00;84.20;;;;;;5142705;28;20239;-88
2022/03/17 02:29:30;;;;;;;17.20;15.40;;;7.00;84.20;;;;;;5140349;28;20204;-87
2022/03/17 02:31:57;;;;;;;17.07;15.37;;;6.90;84.70;;;;;;5104578;28;20237;-85
2022/03/17 02:34:22;;;;;;;19.23;15.53;;;6.90;84.80;;;;;;5100994;28;20208;-84
2022/03/17 02:36:50;;;;;;;18.20;15.27;;;6.70;85.10;;;;;;5118879;28;20185;-85
2022/03/17 02:39:18;;;;;;;20.40;15.97;;;6.80;85.50;;;;;;5105717;28;20277;-88
2022/03/17 02:41:44;;;;;;;17.07;15.37;;;6.70;85.60;;;;;;5129721;28;20176;-88
2022/03/17 02:44:10;;;;;;;23.67;16.60;;;6.70;85.50;;;;;;5118048;28;20175;-87
2022/03/17 02:46:36;;;;;;;19.03;16.77;;;6.70;86.20;;;;;;5117839;28;20165;-86
2022/03/17 02:49:03;;;;;;;17.93;15.40;;;6.70;86.20;;;;;;5117723;28;20201;-86
2022/03/17 02:51:29;;;;;;;17.17;15.30;;;6.60;86.20;;;;;;5117656;28;20178;-87
2022/03/17 02:53:55;;;;;;;18.47;16.57;;;6.60;86.30;;;;;;5117828;28;20214;-86
2022/03/17 02:56:21;;;;;;;17.70;15.90;;;6.60;86.00;;;;;;5118016;28;20173;-88
2022/03/17 02:58:46;;;;;;;18.33;15.40;;;6.70;85.90;;;;;;5110216;28;20174;-88
2022/03/17 03:01:12;;;;;;;17.50;15.23;;;6.60;85.80;;;;;;5117919;28;20184;-87
2022/03/17 03:03:38;;;;;;;17.43;15.53;;;6.50;86.00;;;;;;5138992;28;20162;-86
2022/03/17 03:06:03;;;;;;;17.30;15.50;;;6.60;85.90;;;;;;5136226;28;20174;-86
2022/03/17 03:08:29;;;;;;;18.60;15.63;;;6.50;86.00;;;;;;5123223;28;20207;-88
2022/03/17 03:10:57;;;;;;;19.57;15.73;;;6.40;86.10;;;;;;5098899;28;20178;-89
2022/03/17 03:13:23;;;;;;;18.00;15.70;;;6.40;86.10;;;;;;5116337;28;20180;-88
2022/03/17 03:15:52;;;;;;;18.47;15.50;;;6.40;86.10;;;;;;5116981;28;20182;-89
2022/03/17 03:18:18;;;;;;;17.23;15.63;;;6.30;86.30;;;;;;5098973;28;20174;-88
2022/03/17 03:20:45;;;;;;;18.20;15.97;;;6.40;86.50;;;;;;5117827;28;20167;-89
2022/03/17 03:23:11;;;;;;;17.10;15.30;;;6.30;86.80;;;;;;5117853;28;20165;-88
2022/03/17 03:25:37;;;;;;;17.57;15.70;;;6.40;86.70;;;;;;5117260;28;20174;-88
2022/03/17 03:28:09;;;;;;;19.03;17.03;;;6.40;86.50;;;;;;5098628;28;20230;-89
2022/03/17 03:30:36;;;;;;;18.80;15.50;;;6.40;86.40;;;;;;5117243;28;20239;-89
2022/03/17 03:33:03;;;;;;;20.23;15.80;;;6.40;86.30;;;;;;5101870;28;20208;-89
2022/03/17 03:38:14;;;;;;;16.97;15.10;;;6.30;86.90;;;;;;5118794;28;20242;-89
2022/03/17 03:40:39;;;;;;;17.50;15.67;;;6.30;86.90;;;;;;5101298;28;20177;-88
2022/03/17 03:43:05;;;;;;;17.80;15.93;;;6.20;87.00;;;;;;5121532;28;20229;-89
2022/03/17 03:45:31;;;;;;;18.00;16.20;;;6.20;87.10;;;;;;5100406;28;20181;-87
2022/03/17 03:47:57;;;;;;;19.03;15.63;;;6.20;86.90;;;;;;5098920;28;20210;-88
2022/03/17 03:50:23;;;;;;;21.20;14.90;;;6.20;86.90;;;;;;5097979;28;20184;-85
2022/03/17 03:52:49;;;;;;;17.83;15.93;;;6.20;87.10;;;;;;5115946;28;20205;-84
2022/03/17 03:55:14;;;;;;;17.33;15.40;;;6.10;87.10;;;;;;5117060;28;20537;-90
2022/03/17 03:57:40;;;;;;;18.33;16.03;;;6.10;87.10;;;;;;5116958;28;20177;-89
2022/03/17 04:00:20;;;;;;;19.73;15.70;;;6.20;87.10;;;;;;5118102;28;20177;-90
2022/03/17 04:02:46;;;;;;;16.80;14.77;;;6.10;87.10;;;;;;5125517;28;20159;-88
2022/03/17 04:05:13;;;;;;;18.80;16.80;;;6.10;87.20;;;;;;5125886;28;20626;-89
2022/03/17 04:07:38;;;;;;;17.60;15.80;;;6.00;87.20;;;;;;5128223;28;20216;-90
2022/03/17 04:10:05;;;;;;;20.23;15.87;;;6.10;87.30;;;;;;5119397;28;20194;-89
2022/03/17 04:12:31;;;;;;;17.47;15.67;;;6.00;87.40;;;;;;5133096;28;20190;-85
2022/03/17 04:14:57;;;;;;;20.03;17.17;;;6.00;87.50;;;;;;5139513;28;20150;-87
2022/03/17 04:17:23;;;;;;;17.37;15.50;;;6.00;87.40;;;;;;5139882;28;20162;-85
2022/03/17 04:19:49;;;;;;;18.27;15.47;;;5.90;87.60;;;;;;5124686;28;20237;-91
2022/03/17 04:22:15;;;;;;;19.13;16.10;;;5.80;88.30;;;;;;5126251;28;20178;-87
2022/03/17 04:24:42;;;;;;;20.07;15.90;;;5.70;88.30;;;;;;5121931;28;20184;-88
2022/03/17 04:27:07;;;;;;;17.97;15.87;;;5.70;88.50;;;;;;5096945;28;20425;-88
2022/03/17 04:29:33;;;;;;;17.77;15.63;;;5.60;88.70;;;;;;5097306;28;20176;-86
2022/03/17 04:31:59;;;;;;;17.63;15.00;;;5.70;88.80;;;;;;5097026;28;20223;-87
2022/03/17 04:34:25;;;;;;;17.07;15.27;;;5.70;88.90;;;;;;5115399;28;20181;-87
2022/03/17 04:36:51;;;;;;;18.43;16.23;;;5.60;89.10;;;;;;5115366;28;20246;-88
2022/03/17 04:39:17;;;;;;;20.50;16.07;;;5.60;89.20;;;;;;5114970;28;20615;-85
2022/03/17 04:41:43;;;;;;;18.47;14.57;;;5.60;89.30;;;;;;5115156;28;20174;-85
2022/03/17 04:44:09;;;;;;;20.70;15.83;;;5.60;89.00;;;;;;5115103;28;20167;-88
2022/03/17 04:46:36;;;;;;;18.67;16.50;;;5.60;89.00;;;;;;5115116;28;20173;-87
2022/03/17 04:49:02;;;;;;;18.63;15.70;;;5.60;89.30;;;;;;5115465;28;20301;-89
2022/03/17 04:51:28;;;;;;;20.23;16.40;;;5.50;89.30;;;;;;5116535;28;20183;-89
2022/03/17 04:53:54;;;;;;;18.10;16.00;;;5.50;89.30;;;;;;5125314;28;20178;-89
2022/03/17 04:56:20;;;;;;;18.20;15.83;;;5.50;89.30;;;;;;5130574;28;20174;-88
2022/03/17 04:58:46;;;;;;;19.60;16.23;;;5.60;89.50;;;;;;5106496;28;20202;-90
2022/03/17 05:01:13;;;;;;;18.30;15.57;;;5.50;89.30;;;;;;5137229;28;20201;-89
2022/03/17 05:03:40;;;;;;;17.63;15.77;;;5.60;89.40;;;;;;5129813;28;20235;-88
2022/03/17 05:06:06;;;;;;;19.93;16.93;;;5.50;89.50;;;;;;5124033;28;20178;-89
2022/03/17 05:08:35;;;;;;;18.67;16.23;;;5.40;89.60;;;;;;5116738;28;20197;-88
2022/03/17 05:11:02;;;;;;;20.73;16.43;;;5.50;89.60;;;;;;5117139;28;20168;-90
2022/03/17 05:13:28;;;;;;;19.03;16.33;;;5.50;89.50;;;;;;5116552;28;20535;-87
2022/03/17 05:15:54;;;;;;;17.83;15.60;;;5.50;89.50;;;;;;5114428;28;20200;-86
2022/03/17 05:18:20;;;;;;;19.93;16.47;;;5.50;89.30;;;;;;5114704;28;20184;-86
2022/03/17 05:20:47;;;;;;;20.37;15.80;;;5.60;89.20;;;;;;5096492;28;20510;-87
2022/03/17 05:23:15;;;;;;;18.67;15.33;;;5.50;89.10;;;;;;5096319;28;20181;-87
2022/03/17 05:25:42;;;;;;;20.93;16.20;;;5.50;89.30;;;;;;5114670;28;20176;-88
2022/03/17 05:28:09;;;;;;;19.30;16.20;;;5.40;89.50;;;;;;5114577;28;20258;-88
2022/03/17 05:30:36;;;;;;;20.90;17.30;;;5.40;89.70;;;;;;5096759;28;20632;-87
2022/03/17 05:33:03;;;;;;;23.90;16.27;;;5.30;90.20;;;;;;5114952;28;20183;-88
2022/03/17 05:35:29;;;;;;;18.80;16.33;;;5.30;90.00;;;;;;5114066;28;20230;-88
2022/03/17 05:37:56;;;;;;;19.43;16.20;;;5.40;89.70;;;;;;5096605;28;20219;-89
2022/03/17 05:40:23;;;;;;;23.87;16.67;;;5.40;89.50;;;;;;5114325;28;20173;-88
2022/03/17 05:42:54;;;;;;;19.23;17.20;;;5.40;89.50;;;;;;5096456;28;20302;-87
2022/03/17 05:45:21;;;;;;;22.47;17.13;;;5.40;89.50;;;;;;5114838;28;20158;-86
2022/03/17 05:47:49;;;;;;;22.77;16.53;;;5.50;89.80;;;;;;5114659;28;20224;-88
2022/03/17 05:50:17;;;;;;;22.07;17.20;;;5.50;89.70;;;;;;5117058;28;20196;-86
2022/03/17 05:52:44;;;;;;;22.93;16.83;;;5.50;89.60;;;;;;5100329;28;20178;-88
2022/03/17 05:55:19;;;;;;;22.80;16.10;;;5.50;89.60;;;;;;5096593;28;20209;-86
2022/03/17 05:57:47;;;;;;;19.67;16.47;;;5.50;89.70;;;;;;5096077;28;20293;-87
2022/03/17 06:00:16;;;;;;;21.70;16.23;;;5.50;89.50;;;;;;5095990;28;20171;-86
2022/03/17 06:02:42;;;;;;;19.63;17.07;;;5.60;89.70;;;;;;5095937;28;20173;-90
2022/03/17 06:05:09;;;;;;;21.70;17.07;;;5.60;89.50;;;;;;5114978;28;20226;-89
2022/03/17 06:07:39;;;;;;;22.27;16.87;;;5.60;89.70;;;;;;5114181;28;20194;-91
2022/03/17 06:10:09;;;;;;;20.13;16.27;;;5.50;89.60;;;;;;5114528;28;20172;-87
2022/03/17 06:12:35;;;;;;;21.73;16.53;;;5.60;89.80;;;;;;5116499;28;20175;-92
2022/03/17 06:15:02;;;;;;;22.73;17.17;;;5.60;89.50;;;;;;5114407;28;20240;-92
2022/03/17 06:17:37;;;;;;;20.83;16.77;;;5.80;89.30;;;;;;5115436;28;20174;-88
2022/03/17 06:20:04;;;;;;;22.40;17.80;;;5.90;89.20;;;;;;5114579;28;20181;-90
2022/03/17 06:22:30;;;;;;;25.93;17.20;;;5.90;88.80;;;;;;5079193;28;20231;-89
2022/03/17 06:24:55;;;;;;;21.67;16.80;;;5.90;88.80;;;;;;5095897;28;20178;-88
2022/03/17 06:27:24;;;;;;;21.47;17.03;;;5.80;89.00;;;;;;5113918;28;20226;-87
2022/03/17 06:29:50;;;;;;;23.07;18.77;;;5.80;88.90;;;;;;5096360;28;20183;-88
2022/03/17 06:32:16;;;;;;;24.53;18.40;;;5.80;89.10;;;;;;5114177;28;20246;-90
2022/03/17 06:34:42;;;;;;;24.43;18.03;;;5.80;89.00;;;;;;5114113;28;20212;-88
2022/03/17 06:37:09;;;;;;;23.90;18.63;;;6.00;88.80;;;;;;5114456;28;20166;-87
2022/03/17 06:39:34;;;;;;;25.17;18.37;;;5.90;89.00;;;;;;5114338;28;20529;-88
2022/03/17 06:42:00;;;;;;;19.30;16.17;;;6.10;88.60;;;;;;5114262;28;20177;-84
2022/03/17 06:44:26;;;;;;;22.13;17.23;;;6.10;88.30;;;;;;5115573;28;20173;-87
2022/03/17 06:46:51;;;;;;;20.43;16.70;;;6.10;88.40;;;;;;5097356;28;20170;-88
2022/03/17 06:49:17;;;;;;;22.53;16.67;;;6.10;88.30;;;;;;5120132;28;20212;-89
2022/03/17 06:51:43;;;;;;;20.17;16.60;;;6.20;88.00;;;;;;5110489;28;20187;-88
2022/03/17 06:54:09;;;;;;;21.60;16.57;;;6.20;87.90;;;;;;5109961;28;20178;-88
2022/03/17 06:56:34;;;;;;;20.03;16.27;;;6.20;88.00;;;;;;5119243;28;20192;-85
2022/03/17 06:59:00;;;;;;;19.80;16.67;;;6.20;88.00;;;;;;5133999;28;20181;-89
2022/03/17 07:01:26;;;;;;;19.63;16.93;;;6.20;88.80;;;;;;5137162;28;20224;-87
2022/03/17 07:03:51;;;;;;;20.73;16.40;;;6.30;88.30;;;;;;5120770;28;20173;-88
2022/03/17 07:06:19;;;;;;;23.50;17.90;;;6.40;87.90;;;;;;5117749;28;20276;-87
2022/03/17 07:08:46;;;;;;;22.57;16.83;;;6.50;87.60;;;;;;5099333;28;20206;-89
2022/03/17 07:11:12;;;;;;;23.43;17.20;;;6.60;87.40;;;;;;5099541;28;20210;-87
2022/03/17 07:13:38;;;;;;;20.40;17.37;;;6.70;86.80;;;;;;5118591;28;20653;-88
2022/03/17 07:16:04;;;;;;;22.47;17.73;;;6.70;87.20;;;;;;5117607;28;20222;-89
2022/03/17 07:18:30;;;;;;;20.70;17.47;;;6.70;87.10;;;;;;5101424;28;20194;-89
2022/03/17 07:20:57;;;;;;;24.90;16.90;;;6.80;86.70;;;;;;5123218;28;20219;-89
2022/03/17 07:23:24;;;;;;;21.43;17.37;;;6.90;86.70;;;;;;5120408;28;20170;-86
2022/03/17 07:25:49;;;;;;;22.23;17.47;;;7.00;86.40;;;;;;5119993;28;20657;-90
2022/03/17 07:28:16;;;;;;;22.07;16.73;;;7.00;85.90;;;;;;5132279;28;20264;-83
2022/03/17 07:30:42;;;;;;;22.30;17.30;;;7.10;86.10;;;;;;5121285;28;20164;-90
2022/03/17 07:33:08;;;;;;;17.60;15.70;;;7.10;85.70;;;;;;5132873;28;20217;-85
2022/03/17 07:35:34;;;;;;;17.70;15.50;;;7.30;85.00;;;;;;5125468;28;20226;-86
2022/03/17 07:38:02;;;;;;;19.93;16.03;;;7.40;84.40;;;;;;5105370;28;20260;-86
2022/03/17 07:40:28;;;;;;;22.33;16.77;;;7.50;84.30;;;;;;5119628;28;20177;-87
2022/03/17 07:42:54;;;;;;;18.13;16.07;;;7.50;84.00;;;;;;5118973;28;20169;-87
2022/03/17 07:45:20;;;;;;;18.20;16.30;;;7.60;84.10;;;;;;5117828;28;20187;-86
2022/03/17 07:47:50;;;;;;;21.53;16.60;;;7.70;84.10;;;;;;5098197;28;20662;-86
2022/03/17 07:50:17;;;;;;;23.27;17.40;;;7.70;84.80;;;;;;5098956;28;20183;-90
2022/03/17 07:52:42;;;;;;;20.90;16.67;;;7.90;84.00;;;;;;5118805;28;20186;-91
2022/03/17 07:55:09;;;;;;;21.60;16.50;;;7.90;83.50;;;;;;5103438;28;20170;-87
2022/03/17 07:57:36;;;;;;;20.47;16.17;;;7.90;83.90;;;;;;5120142;28;20207;-91
2022/03/17 08:00:04;;;;;;;19.43;16.03;;;8.00;83.30;;;;;;5118500;28;20180;-92
2022/03/17 08:02:30;;;;;;;19.50;16.60;;;8.10;83.50;;;;;;5101464;28;20172;-89
2022/03/17 08:04:56;;;;;;;21.63;15.97;;;8.40;83.70;;;;;;5119032;28;20528;-86
2022/03/17 08:07:23;;;;;;;17.73;15.83;;;8.60;89.40;;;;;;5119075;28;20177;-90
2022/03/17 08:09:49;;;;;;;18.53;16.53;;;8.80;84.10;;;;;;5118695;28;20173;-86
2022/03/17 08:12:14;;;;;;;21.67;16.40;;;8.90;84.20;;;;;;5115605;28;20182;-86
2022/03/17 08:14:41;;;;;;;18.80;16.07;;;9.00;84.70;;;;;;5099668;28;20253;-89
2022/03/17 08:17:09;;;;;;;18.10;15.73;;;9.20;83.40;;;;;;5118085;28;20166;-88
2022/03/17 08:19:35;;;;;;;26.10;16.30;;;9.30;82.50;;;;;;5119175;28;20506;-88
2022/03/17 08:22:01;;;;;;;19.93;15.93;;;9.30;81.90;;;;;;5117686;28;20176;-86
2022/03/17 08:24:27;;;;;;;18.33;16.27;;;9.50;80.80;;;;;;5119111;28;20524;-89
2022/03/17 08:26:55;;;;;;;21.27;18.20;;;9.60;80.20;;;;;;5101502;28;20555;-89
2022/03/17 08:29:21;;;;;;;24.87;16.33;;;9.70;80.50;;;;;;5124309;28;20203;-87
2022/03/17 08:31:47;;;;;;;19.27;16.43;;;9.60;81.30;;;;;;5120668;28;20173;-86
2022/03/17 08:34:13;;;;;;;24.63;17.27;;;9.70;81.60;;;;;;5125785;28;20175;-85
2022/03/17 08:36:39;;;;;;;24.80;19.17;;;9.80;80.40;;;;;;5106855;28;20166;-84
2022/03/17 08:39:05;;;;;;;23.03;18.97;;;9.90;80.40;;;;;;5124455;28;20629;-86
2022/03/17 08:41:31;;;;;;;21.53;18.10;;;10.00;80.00;;;;;;5104168;28;20181;-89
2022/03/17 08:43:57;;;;;;;22.93;18.97;;;10.10;81.00;;;;;;5125480;28;20565;-84
2022/03/17 08:49:19;;;;;;;23.83;20.17;;;10.20;80.70;;;;;;5122301;28;20204;-89
2022/03/17 08:51:50;;;;;;;22.73;20.20;;;10.40;79.90;;;;;;5119026;28;20189;-84
2022/03/17 08:54:18;;;;;;;23.37;20.73;;;10.40;79.70;;;;;;5118817;28;20242;-83
2022/03/17 08:56:43;;;;;;;25.43;21.27;;;10.40;79.80;;;;;;5120535;28;20182;-85
2022/03/17 08:59:10;;;;;;;24.50;20.70;;;10.40;80.40;;;;;;5117170;28;20173;-86
2022/03/17 09:01:39;;;;;;;25.63;21.43;;;10.50;80.90;;;;;;5117589;28;20644;-86
2022/03/17 09:04:05;;;;;;;27.03;23.33;;;10.60;79.80;;;;;;5116446;28;20264;-89
2022/03/17 09:06:31;;;;;;;25.77;22.97;;;10.60;79.80;;;;;;5117360;28;20195;-87
2022/03/17 09:08:57;;;;;;;27.70;23.17;;;10.60;80.40;;;;;;5096742;28;20206;-88
2022/03/17 09:11:23;;;;;;;24.53;21.80;;;10.60;80.40;;;;;;5097716;28;20182;-87
2022/03/17 09:13:49;;;;;;;27.80;23.13;;;10.70;80.10;;;;;;5126666;28;20237;-84
2022/03/17 09:16:19;;;;;;;32.07;24.13;;;10.80;80.30;;;;;;5107497;28;20562;-87
2022/03/17 09:18:45;;;;;;;28.90;23.73;;;10.70;80.30;;;;;;5128472;28;20242;-83
2022/03/17 09:21:11;;;;;;;27.43;24.40;;;10.70;80.70;;;;;;5128637;28;20169;-88
2022/03/17 09:23:37;;;;;;;28.53;24.37;;;10.70;80.70;;;;;;5116214;28;20190;-85
2022/03/17 09:26:03;;;;;;;29.03;24.20;;;10.70;81.00;;;;;;5097506;28;20193;-86
2022/03/17 09:28:29;;;;;;;26.13;23.33;;;10.70;81.50;;;;;;5093543;28;20635;-85
2022/03/17 09:30:57;;;;;;;22.10;19.70;;;10.80;80.50;;;;;;5093635;28;20297;-86
2022/03/17 09:33:25;;;;;;;25.50;20.40;;;10.70;78.40;;;;;;5094715;28;20174;-85
2022/03/17 09:35:56;;;;;;;25.67;21.87;;;10.70;78.20;;;;;;5095100;28;20170;-85
2022/03/17 09:38:23;;;;;;;29.10;21.43;;;10.60;78.60;;;;;;5098367;28;20162;-87
2022/03/17 09:40:49;;;;;;;25.77;20.70;;;10.70;78.50;;;;;;5094478;28;20179;-86
2022/03/17 09:43:28;;;;;;;23.77;20.27;;;10.80;78.50;;;;;;5094693;28;20637;-87
2022/03/17 09:45:56;;;;;;;25.83;20.50;;;10.80;79.30;;;;;;5094893;28;20154;-87
2022/03/17 09:48:24;;;;;;;25.57;20.57;;;10.90;79.00;;;;;;5093182;28;20210;-86
2022/03/17 09:50:57;;;;;;;28.90;20.20;;;11.00;77.90;;;;;;5100729;28;20178;-86
2022/03/17 09:53:24;;;;;;;26.20;20.10;;;11.00;77.10;;;;;;5097034;28;20167;-88
2022/03/17 09:55:51;;;;;;;24.60;20.17;;;11.00;77.80;;;;;;5096436;28;20246;-91
2022/03/17 09:58:17;;;;;;;23.93;19.97;;;11.10;77.50;;;;;;5096391;28;20262;-92
2022/03/17 10:00:52;;;;;;;22.77;20.27;;;11.10;77.00;;;;;;5097106;28;20731;-85
2022/03/17 10:03:21;;;;;;;25.17;20.73;;;11.20;77.60;;;;;;5095608;28;20188;-87
2022/03/17 10:05:49;;;;;;;24.20;21.07;;;11.20;77.10;;;;;;5094703;28;20172;-90
2022/03/17 10:08:16;;;;;;;23.70;21.20;;;11.30;77.30;;;;;;5094477;28;20731;-88
2022/03/17 10:10:43;;;;;;;26.17;21.37;;;11.40;77.20;;;;;;5095134;28;20168;-85
2022/03/17 10:13:16;;;;;;;26.20;20.47;;;11.40;77.30;;;;;;5097806;28;20182;-85
2022/03/17 10:15:45;;;;;;;24.93;19.80;;;11.50;76.70;;;;;;5100709;28;20243;-85
2022/03/17 10:18:24;;;;;;;23.50;20.20;;;11.60;76.20;;;;;;5095468;28;20175;-90
2022/03/17 10:21:12;;;;;;;22.20;19.77;;;11.60;76.10;;;;;;5095898;28;20179;-86
2022/03/17 10:23:50;;;;;;;25.63;21.10;;;11.60;76.50;;;;;;5092195;28;20212;-85
2022/03/17 10:26:36;;;;;;;23.20;20.63;;;11.60;76.50;;;;;;5098227;28;20191;-86
2022/03/17 10:29:07;;;;;;;23.77;19.20;;;11.70;76.90;;;;;;5097909;28;20223;-85
2022/03/17 10:31:53;;;;;;;22.90;20.47;;;11.70;77.40;;;;;;5098184;28;20165;-85
2022/03/17 10:34:21;;;;;;;23.47;19.57;;;11.80;76.70;;;;;;5097681;28;20229;-88
2022/03/17 10:36:48;;;;;;;22.80;20.03;;;11.90;75.70;;;;;;5097619;28;20169;-88
2022/03/17 10:39:15;;;;;;;22.57;19.20;;;11.90;75.70;;;;;;5097172;28;20529;-85
2022/03/17 10:41:43;;;;;;;21.13;19.00;;;11.90;75.60;;;;;;5097176;28;20170;-86
2022/03/17 10:44:15;;;;;;;22.80;20.40;;;12.00;75.70;;;;;;5095511;28;20170;-85
2022/03/17 10:47:01;;;;;;;20.87;18.83;;;12.10;74.10;;;;;;5096832;28;20225;-86
2022/03/17 10:49:30;;;;;;;22.20;18.50;;;12.00;74.00;;;;;;5097097;28;20216;-89
2022/03/17 10:51:57;;;;;;;22.77;19.23;;;12.00;74.20;;;;;;5096801;28;20175;-88
2022/03/17 10:54:24;;;;;;;21.03;18.67;;;12.10;74.20;;;;;;5096251;28;20173;-90
2022/03/17 10:57:11;;;;;;;20.53;18.43;;;12.10;74.70;;;;;;5100162;28;20177;-89
2022/03/17 10:59:43;;;;;;;20.37;18.03;;;12.20;74.00;;;;;;5100711;28;20164;-87
2022/03/17 11:02:11;;;;;;;20.53;18.33;;;12.30;73.20;;;;;;5101148;28;20187;-89
2022/03/17 11:04:39;;;;;;;24.67;17.97;;;12.40;72.80;;;;;;5102711;28;20199;-86
2022/03/17 11:07:08;;;;;;;20.47;18.27;;;12.40;72.10;;;;;;5101118;28;20242;-87
2022/03/17 11:09:38;;;;;;;20.53;17.20;;;12.50;71.60;;;;;;5112742;28;20212;-84
2022/03/17 11:12:09;;;;;;;19.20;17.03;;;12.50;71.50;;;;;;5105282;28;20530;-87
2022/03/17 11:14:41;;;;;;;20.67;17.27;;;12.60;70.00;;;;;;5113448;28;20188;-85
2022/03/17 11:17:09;;;;;;;18.63;16.63;;;12.60;70.20;;;;;;5100713;28;20182;-89
2022/03/17 11:19:36;;;;;;;17.73;15.37;;;12.60;69.20;;;;;;5110310;28;20197;-85
2022/03/17 11:22:08;;;;;;;19.07;15.13;;;12.60;69.00;;;;;;5118835;28;20632;-86
2022/03/17 11:24:34;;;;;;;26.50;14.50;;;12.50;68.40;;;;;;5105575;28;20639;-89
2022/03/17 11:27:27;;;;;;;16.80;14.60;;;12.60;67.70;;;;;;5110270;28;20228;-87
2022/03/17 11:29:55;;;;;;;15.63;13.80;;;12.50;68.00;;;;;;5102889;28;20199;-88
2022/03/17 11:32:29;;;;;;;18.20;14.63;;;12.50;67.20;;;;;;5118924;28;20176;-85
2022/03/17 11:35:11;;;;;;;27.40;21.13;;;12.50;65.80;;;;;;5121444;28;20258;-88
2022/03/17 11:37:37;;;;;;;13.57;12.10;;;12.60;67.00;;;;;;5118594;28;20173;-89
2022/03/17 11:40:19;;;;;;;16.00;14.30;;;12.80;63.70;;;;;;5119355;28;20517;-90
2022/03/17 11:42:49;;;;;;;16.37;11.77;;;12.80;62.90;;;;;;5117901;28;20482;-89
2022/03/17 11:45:15;;;;;;;13.07;11.73;;;12.90;63.00;;;;;;5117023;28;20181;-90
2022/03/17 11:47:44;;;;;;;13.07;11.70;;;13.00;61.50;;;;;;5098787;28;20679;-92
2022/03/17 11:50:38;;;;;;;13.10;10.87;;;13.00;61.60;;;;;;5118632;28;20166;-90
2022/03/17 11:53:05;;;;;;;14.20;10.43;;;13.00;62.10;;;;;;5098151;28;20240;-86
2022/03/17 11:55:34;;;;;;;15.60;11.47;;;13.10;60.60;;;;;;5117489;28;20176;-86
2022/03/17 11:58:18;;;;;;;12.47;11.23;;;13.30;60.90;;;;;;5098686;28;20660;-84
2022/03/17 12:01:11;;;;;;;17.13;12.23;;;13.30;61.60;;;;;;5118141;28;20181;-85
2022/03/17 12:03:50;;;;;;;13.07;11.77;;;13.40;61.80;;;;;;5116462;28;20214;-85
2022/03/17 12:06:21;;;;;;;12.37;11.17;;;13.40;62.20;;;;;;5116416;28;20164;-85
2022/03/17 12:08:59;;;;;;;13.73;11.67;;;13.50;62.50;;;;;;5115958;28;20199;-84
2022/03/17 12:11:27;;;;;;;14.57;12.17;;;13.50;62.30;;;;;;5117671;28;20157;-85
2022/03/17 12:14:25;;;;;;;14.70;12.53;;;13.50;62.00;;;;;;5127520;28;20173;-84
2022/03/17 12:17:08;;;;;;;14.27;12.87;;;13.60;62.10;;;;;;5104500;27;20177;-86
2022/03/17 12:19:48;;;;;;;16.43;12.90;;;13.60;61.90;;;;;;5133878;28;20166;-89
2022/03/17 12:22:22;;;;;;;14.20;12.80;;;13.60;62.30;;;;;;5126766;28;20165;-90
2022/03/17 12:24:59;;;;;;;14.27;12.77;;;13.60;62.40;;;;;;5124044;28;20170;-89
2022/03/17 12:27:31;;;;;;;14.47;11.77;;;13.60;62.40;;;;;;5098467;28;20267;-87
2022/03/17 12:30:03;;;;;;;14.60;12.00;;;13.60;62.60;;;;;;5098436;28;20173;-89
2022/03/17 12:32:35;;;;;;;13.70;12.30;;;13.70;63.20;;;;;;5096719;28;20185;-91
2022/03/17 12:35:02;;;;;;;13.13;11.80;;;13.80;62.50;;;;;;5095739;28;20247;-89
2022/03/17 12:37:33;;;;;;;16.27;12.47;;;13.90;61.90;;;;;;5097698;28;20546;-89
2022/03/17 12:40:05;;;;;;;13.83;11.37;;;13.90;61.90;;;;;;5097533;28;20518;-86
2022/03/17 12:42:39;;;;;;;15.33;12.70;;;13.90;61.90;;;;;;5098366;28;20167;-87
2022/03/17 12:45:12;;;;;;;14.23;11.97;;;13.90;61.40;;;;;;5100129;28;20151;-86
2022/03/17 12:47:41;;;;;;;15.07;12.00;;;13.90;61.20;;;;;;5103660;28;20200;-87
2022/03/17 12:50:10;;;;;;;14.60;12.23;;;13.90;61.10;;;;;;5101737;28;20170;-84
2022/03/17 12:52:40;;;;;;;12.13;10.93;;;14.00;62.10;;;;;;5101603;28;20205;-87